Time;durP1;ratioP1;P1;durP2;ratioP2;P2;SDS_P1;SDS_P2;PMS_P1;PMS_P2;Temp;Humidity;BMP_temperature;BMP_pressure;BME280_temperature;BME280_humidity;BME280_pressure;Samples;Min_cycle;Max_cycle;Signal;HPM_P1;HPM_P2
2021/08/12 00:01:27;;;;;;;2.08;1.27;;;35.00;98.20;;;;;;5107091;22;20295;-92
2021/08/12 00:03:59;;;;;;;1.10;1.00;;;34.90;98.00;;;;;;5080055;28;20189;-92
2021/08/12 00:06:31;;;;;;;1.50;1.25;;;35.00;98.10;;;;;;5076975;28;20208;-92
2021/08/12 00:09:03;;;;;;;1.27;1.02;;;35.00;98.40;;;;;;5074806;28;20207;-91
2021/08/12 00:11:35;;;;;;;1.33;1.23;;;35.00;98.10;;;;;;5068738;28;20200;-91
2021/08/12 00:14:07;;;;;;;3.08;1.05;;;35.10;98.30;;;;;;5073269;28;20182;-92
2021/08/12 00:16:41;;;;;;;1.08;0.98;;;34.90;97.30;;;;;;5073027;28;20206;-92
2021/08/12 00:19:13;;;;;;;1.23;0.90;;;34.90;97.70;;;;;;5071992;28;20204;-92
2021/08/12 00:21:45;;;;;;;1.88;1.00;;;34.90;98.30;;;;;;5064990;28;20256;-93
2021/08/12 00:24:21;;;;;;;2.47;0.80;;;34.90;97.30;;;;;;5063000;28;20216;-92
2021/08/12 00:26:52;;;;;;;0.85;0.80;;;34.70;96.80;;;;;;5072013;28;20222;-91
2021/08/12 00:29:25;;;;;;;2.75;1.10;;;34.80;97.30;;;;;;5073672;28;20225;-92
2021/08/12 00:32:01;;;;;;;1.23;0.93;;;34.90;97.10;;;;;;5071461;28;20312;-90
2021/08/12 00:34:40;;;;;;;1.58;1.00;;;34.80;96.60;;;;;;5229035;22;20438;-91
2021/08/12 00:40:12;;;;;;;0.85;0.82;;;34.80;96.80;;;;;;5179039;22;20330;-93
2021/08/12 00:42:44;;;;;;;1.20;0.80;;;34.80;96.80;;;;;;5073723;22;20271;-92
2021/08/12 00:45:15;;;;;;;3.20;0.93;;;34.70;96.60;;;;;;5042562;28;20285;-92
2021/08/12 00:47:48;;;;;;;1.15;1.00;;;34.70;97.70;;;;;;5044023;28;20208;-92
2021/08/12 00:50:23;;;;;;;3.08;1.70;;;34.60;96.60;;;;;;5056253;28;20210;-93
2021/08/12 00:52:59;;;;;;;1.95;1.33;;;34.60;96.50;;;;;;5055657;28;20243;-92
2021/08/12 00:55:31;;;;;;;1.70;1.10;;;34.50;96.90;;;;;;5056055;28;20236;-92
2021/08/12 00:58:04;;;;;;;2.13;1.30;;;34.40;96.80;;;;;;5037389;28;20275;-91
2021/08/12 01:00:36;;;;;;;1.05;0.95;;;34.40;96.90;;;;;;5052620;28;20256;-92
2021/08/12 01:03:13;;;;;;;2.20;0.90;;;34.30;96.30;;;;;;5054567;28;20264;-91
2021/08/12 01:05:55;;;;;;;1.23;1.05;;;34.40;96.60;;;;;;5055865;28;20204;-91
2021/08/12 01:08:45;;;;;;;1.20;1.05;;;34.60;96.40;;;;;;5068290;23;20238;-92
2021/08/12 01:11:31;;;;;;;2.40;1.00;;;34.70;96.70;;;;;;5042373;28;20220;-92
2021/08/12 01:14:15;;;;;;;2.38;1.23;;;34.90;95.70;;;;;;5059428;28;20228;-91
2021/08/12 01:16:50;;;;;;;1.63;1.00;;;35.10;95.70;;;;;;5056973;28;20192;-92
2021/08/12 01:20:06;;;;;;;2.13;1.20;;;35.50;95.20;;;;;;5037449;28;20219;-92
2021/08/12 01:25:26;;;;;;;1.50;1.02;;;36.00;94.60;;;;;;5313276;22;20226;-92
2021/08/12 01:28:04;;;;;;;1.20;1.10;;;35.80;95.20;;;;;;5092097;22;20200;-91
2021/08/12 01:30:49;;;;;;;2.63;1.50;;;35.90;95.10;;;;;;5058899;28;20220;-93
2021/08/12 01:33:38;;;;;;;1.23;1.10;;;36.10;94.90;;;;;;5076122;28;20203;-93
2021/08/12 01:36:15;;;;;;;3.80;1.63;;;36.20;94.70;;;;;;5103226;22;20238;-91
2021/08/12 01:38:49;;;;;;;2.05;0.93;;;36.20;94.60;;;;;;5118092;28;20202;-92
2021/08/12 01:41:25;;;;;;;2.60;1.13;;;36.20;94.50;;;;;;5101436;28;20211;-92
2021/08/12 01:44:04;;;;;;;1.60;1.05;;;36.00;94.50;;;;;;5118516;28;20194;-92
2021/08/12 01:46:50;;;;;;;1.08;1.00;;;36.00;94.80;;;;;;5115476;28;20262;-91
2021/08/12 01:49:22;;;;;;;1.20;1.10;;;36.20;94.80;;;;;;5113050;28;20295;-92
2021/08/12 01:51:56;;;;;;;1.73;1.50;;;36.30;94.90;;;;;;5111955;28;20207;-92
2021/08/12 01:54:29;;;;;;;3.85;1.10;;;36.30;95.10;;;;;;5112740;28;20265;-92
2021/08/12 01:57:02;;;;;;;2.10;1.20;;;36.30;95.00;;;;;;5112688;28;20670;-92
2021/08/12 01:59:34;;;;;;;1.70;1.15;;;36.20;94.50;;;;;;5112249;28;20213;-92
2021/08/12 02:05:03;;;;;;;2.25;1.50;;;35.40;95.30;;;;;;5112723;28;20223;-92
2021/08/12 02:07:42;;;;;;;2.05;1.40;;;34.00;96.80;;;;;;5115075;28;20215;-93
2021/08/12 02:10:18;;;;;;;1.88;1.40;;;32.90;98.00;;;;;;5096841;28;20233;-93
2021/08/12 02:12:56;;;;;;;1.70;1.42;;;32.20;98.80;;;;;;5136644;22;20235;-93
2021/08/12 02:15:32;;;;;;;2.58;1.38;;;31.80;98.80;;;;;;5073813;28;20215;-93
2021/08/12 02:18:08;;;;;;;1.95;1.50;;;31.50;99.50;;;;;;5075461;28;20268;-92
2021/08/12 02:21:03;;;;;;;2.80;1.70;;;31.20;99.90;;;;;;5069393;28;20305;-92
2021/08/12 02:23:59;;;;;;;2.17;1.60;;;30.80;99.90;;;;;;5070544;28;20234;-92
2021/08/12 02:26:36;;;;;;;2.70;2.05;;;30.60;99.90;;;;;;5072519;28;20227;-92
2021/08/12 02:29:14;;;;;;;3.50;1.80;;;30.30;99.90;;;;;;5058098;28;20208;-93
2021/08/12 02:31:48;;;;;;;3.53;1.70;;;30.20;99.90;;;;;;5065748;28;20282;-92
2021/08/12 02:34:20;;;;;;;2.65;1.50;;;30.10;99.90;;;;;;5062180;28;20229;-92
2021/08/12 02:36:53;;;;;;;2.78;1.63;;;30.00;99.90;;;;;;5062245;28;20244;-92
2021/08/12 02:39:42;;;;;;;2.63;1.73;;;29.90;99.90;;;;;;5073899;28;20279;-92
2021/08/12 02:42:14;;;;;;;2.40;1.50;;;29.80;99.90;;;;;;5071574;28;20228;-92
2021/08/12 02:44:52;;;;;;;3.15;1.30;;;29.70;99.90;;;;;;5074601;28;20208;-91
2021/08/12 02:47:24;;;;;;;1.90;1.58;;;29.50;99.90;;;;;;5062116;28;20227;-92
2021/08/12 02:49:59;;;;;;;2.57;1.40;;;29.50;99.90;;;;;;5057522;28;20208;-92
2021/08/12 02:52:31;;;;;;;2.17;1.53;;;29.30;99.90;;;;;;5056816;28;20212;-91
2021/08/12 02:55:05;;;;;;;2.85;1.40;;;29.20;99.90;;;;;;5055258;28;20201;-91
2021/08/12 02:57:39;;;;;;;2.63;1.60;;;29.00;99.90;;;;;;5056928;28;20192;-91
2021/08/12 03:00:13;;;;;;;2.33;1.77;;;29.00;99.90;;;;;;5053716;28;20232;-94
2021/08/12 03:02:48;;;;;;;5.03;2.13;;;28.90;99.90;;;;;;5039425;28;20638;-92
2021/08/12 03:05:21;;;;;;;2.50;1.60;;;28.80;99.90;;;;;;5044078;28;20228;-92
2021/08/12 03:10:43;;;;;;;2.53;1.57;;;28.60;99.90;;;;;;5054533;28;20201;-92
2021/08/12 03:13:16;;;;;;;3.03;1.60;;;28.60;99.90;;;;;;5053797;28;20212;-92
2021/08/12 03:15:54;;;;;;;3.97;1.80;;;28.40;99.90;;;;;;5051761;28;20209;-92
2021/08/12 03:18:34;;;;;;;3.00;1.90;;;28.30;99.90;;;;;;5036611;28;20261;-91
2021/08/12 03:21:15;;;;;;;5.00;2.07;;;28.20;99.90;;;;;;5038600;28;20232;-92
2021/08/12 03:23:47;;;;;;;4.33;1.73;;;28.00;99.90;;;;;;5058666;28;20212;-92
2021/08/12 03:26:24;;;;;;;1.97;1.60;;;27.80;99.90;;;;;;5070194;28;20215;-92
2021/08/12 03:28:59;;;;;;;3.13;1.73;;;27.70;99.90;;;;;;5071838;28;20189;-92
2021/08/12 03:31:30;;;;;;;2.57;1.80;;;27.60;99.90;;;;;;5064875;28;20560;-92
2021/08/12 03:34:04;;;;;;;2.93;2.13;;;27.50;99.90;;;;;;5060691;28;20327;-92
2021/08/12 03:36:35;;;;;;;3.10;1.90;;;27.30;99.90;;;;;;5059271;28;20196;-91
2021/08/12 03:39:07;;;;;;;3.23;2.00;;;27.20;99.90;;;;;;5077313;28;20200;-92
2021/08/12 03:41:41;;;;;;;3.37;1.90;;;27.00;99.90;;;;;;5075721;28;20235;-91
2021/08/12 03:44:12;;;;;;;2.47;1.67;;;26.90;99.90;;;;;;5051338;28;20248;-91
2021/08/12 03:47:02;;;;;;;3.00;2.00;;;26.80;99.90;;;;;;5054153;28;20236;-91
2021/08/12 03:49:34;;;;;;;5.77;2.20;;;26.60;99.90;;;;;;5048042;28;20228;-92
2021/08/12 03:52:07;;;;;;;4.97;2.10;;;26.60;99.90;;;;;;5044619;28;20227;-91
2021/08/12 03:54:40;;;;;;;4.43;2.10;;;26.50;99.90;;;;;;5048576;28;20219;-92
2021/08/12 03:57:14;;;;;;;4.43;2.40;;;26.50;99.90;;;;;;5049837;28;20361;-91
2021/08/12 03:59:46;;;;;;;4.13;2.17;;;26.40;99.90;;;;;;5049053;28;20208;-91
2021/08/12 04:07:48;;;;;;;2.33;2.10;;;26.10;99.90;;;;;;5086152;28;20203;-92
2021/08/12 04:10:23;;;;;;;2.07;1.87;;;26.00;99.90;;;;;;5072456;28;20210;-91
2021/08/12 04:12:58;;;;;;;3.33;2.10;;;25.90;99.90;;;;;;5092212;28;20279;-92
2021/08/12 04:15:29;;;;;;;2.93;2.20;;;25.90;99.90;;;;;;5088075;28;20620;-89
2021/08/12 04:18:05;;;;;;;3.40;2.10;;;25.80;99.90;;;;;;5076557;28;20565;-92
2021/08/12 04:20:36;;;;;;;3.90;2.03;;;25.70;99.90;;;;;;5070498;28;20274;-92
2021/08/12 04:23:11;;;;;;;4.40;2.17;;;25.60;99.90;;;;;;5090404;28;20219;-92
2021/08/12 04:25:43;;;;;;;3.43;1.83;;;25.50;99.90;;;;;;5097447;28;20211;-93
2021/08/12 04:28:32;;;;;;;4.60;2.53;;;25.40;99.90;;;;;;5096192;28;20206;-92
2021/08/12 04:31:04;;;;;;;7.50;2.50;;;25.30;99.90;;;;;;5093881;28;20203;-93
2021/08/12 04:33:36;;;;;;;3.97;2.50;;;25.20;99.90;;;;;;5092097;28;20274;-92
2021/08/12 04:36:08;;;;;;;4.50;2.37;;;25.10;99.90;;;;;;5096797;28;20207;-93
2021/08/12 04:38:39;;;;;;;3.90;2.13;;;25.00;99.90;;;;;;5071153;28;20250;-93
2021/08/12 04:41:13;;;;;;;3.17;1.97;;;25.00;99.90;;;;;;5068126;28;20246;-93
2021/08/12 04:43:51;;;;;;;4.17;2.20;;;25.00;99.90;;;;;;5086942;28;20206;-92
2021/08/12 04:46:28;;;;;;;2.63;2.17;;;24.90;99.90;;;;;;5071896;28;20238;-91
2021/08/12 04:49:02;;;;;;;6.23;2.07;;;24.90;99.90;;;;;;5087557;28;20214;-91
2021/08/12 04:51:35;;;;;;;2.23;2.03;;;24.80;99.90;;;;;;5085148;28;20211;-92
2021/08/12 05:02:03;;;;;;;4.83;2.30;;;24.60;99.90;;;;;;5086443;28;20302;-92
2021/08/12 05:04:38;;;;;;;3.80;2.20;;;24.50;99.90;;;;;;5086730;28;20221;-93
2021/08/12 05:07:10;;;;;;;4.60;3.27;;;24.50;99.90;;;;;;5085243;28;20210;-92
2021/08/12 05:09:46;;;;;;;5.67;2.90;;;24.40;99.90;;;;;;5085507;28;20210;-91
2021/08/12 05:12:21;;;;;;;5.20;2.77;;;24.30;99.90;;;;;;5071000;28;20211;-92
2021/08/12 05:14:55;;;;;;;3.10;2.03;;;24.30;99.90;;;;;;5086492;28;20214;-92
2021/08/12 05:17:30;;;;;;;5.63;2.20;;;24.30;99.90;;;;;;5067333;28;20219;-91
2021/08/12 05:20:02;;;;;;;3.47;2.33;;;24.30;99.90;;;;;;5082083;28;20255;-91
2021/08/12 05:22:41;;;;;;;5.83;2.90;;;24.30;99.90;;;;;;5062179;28;20239;-92
2021/08/12 05:25:13;;;;;;;4.87;2.40;;;24.30;99.90;;;;;;5065861;28;20231;-92
2021/08/12 05:27:44;;;;;;;4.37;1.90;;;24.20;99.90;;;;;;5064910;28;20399;-91
2021/08/12 05:30:15;;;;;;;4.73;1.87;;;24.10;99.90;;;;;;5047929;28;20216;-93
2021/08/12 05:32:50;;;;;;;2.57;1.80;;;24.10;99.90;;;;;;5046967;28;20212;-91
2021/08/12 05:35:23;;;;;;;2.33;1.80;;;24.10;99.90;;;;;;5059986;28;20686;-91
2021/08/12 05:37:54;;;;;;;2.97;2.10;;;24.00;99.90;;;;;;5060392;28;20222;-90
2021/08/12 05:40:29;;;;;;;2.80;1.90;;;24.00;99.90;;;;;;5061959;28;20233;-91
2021/08/12 05:43:00;;;;;;;4.73;2.13;;;23.90;99.90;;;;;;5059371;28;20575;-91
2021/08/12 05:45:32;;;;;;;2.47;1.87;;;23.90;99.90;;;;;;5060421;28;20228;-91
2021/08/12 05:48:05;;;;;;;4.33;1.97;;;23.80;99.90;;;;;;5099971;28;20215;-91
2021/08/12 05:50:36;;;;;;;2.43;2.17;;;23.70;99.90;;;;;;5099840;28;20207;-90
2021/08/12 05:53:07;;;;;;;3.23;2.03;;;23.60;99.90;;;;;;5099744;28;20230;-91
2021/08/12 05:55:38;;;;;;;2.80;1.90;;;23.60;99.90;;;;;;5085294;28;20258;-91
2021/08/12 05:58:09;;;;;;;2.93;2.20;;;23.60;99.90;;;;;;5080370;28;20204;-91
2021/08/12 06:00:41;;;;;;;4.33;1.97;;;23.60;99.90;;;;;;5080291;28;20216;-90
2021/08/12 06:03:16;;;;;;;3.97;2.33;;;23.50;99.90;;;;;;5080397;28;20257;-91
2021/08/12 06:05:47;;;;;;;3.13;2.20;;;23.50;99.90;;;;;;5089134;28;20219;-91
2021/08/12 06:08:19;;;;;;;2.27;2.07;;;23.50;99.90;;;;;;5096111;28;20332;-91
2021/08/12 06:10:50;;;;;;;4.10;2.50;;;23.50;99.90;;;;;;5096738;28;20208;-90
2021/08/12 06:13:22;;;;;;;3.73;1.97;;;23.50;99.90;;;;;;5094994;28;20290;-91
2021/08/12 06:15:53;;;;;;;3.30;2.30;;;23.40;99.90;;;;;;5081173;28;20207;-91
2021/08/12 06:18:26;;;;;;;3.23;1.93;;;23.50;99.90;;;;;;5083735;28;20242;-91
2021/08/12 06:20:58;;;;;;;3.20;2.30;;;23.40;99.90;;;;;;5080855;28;20425;-92
2021/08/12 06:23:29;;;;;;;2.40;2.03;;;23.30;99.90;;;;;;5086701;28;20600;-92
2021/08/12 06:26:00;;;;;;;2.13;2.03;;;23.30;99.90;;;;;;5078710;28;20215;-91
2021/08/12 06:28:33;;;;;;;4.50;2.20;;;23.20;99.90;;;;;;5087813;28;20231;-92
2021/08/12 06:31:18;;;;;;;6.00;2.37;;;23.10;99.90;;;;;;5085501;28;20216;-92
2021/08/12 06:33:56;;;;;;;5.23;2.33;;;23.10;99.90;;;;;;5086052;28;20207;-92
2021/08/12 06:36:28;;;;;;;4.67;2.10;;;23.00;99.90;;;;;;5079735;28;20210;-92
2021/08/12 06:39:01;;;;;;;4.80;2.00;;;22.90;99.90;;;;;;5080717;28;20625;-92
2021/08/12 06:41:33;;;;;;;4.70;2.00;;;22.90;99.90;;;;;;5080949;28;20643;-91
2021/08/12 06:44:05;;;;;;;3.73;2.57;;;22.80;99.90;;;;;;5073521;28;20323;-92
2021/08/12 06:46:36;;;;;;;5.13;2.17;;;22.70;99.90;;;;;;5085292;28;20280;-91
2021/08/12 06:49:11;;;;;;;3.43;1.93;;;22.70;99.90;;;;;;5079717;28;20253;-92
2021/08/12 06:51:42;;;;;;;2.77;1.90;;;22.70;99.90;;;;;;5077711;28;20200;-91
2021/08/12 06:54:14;;;;;;;3.67;1.80;;;22.60;99.90;;;;;;5078157;28;20215;-92
2021/08/12 06:56:45;;;;;;;2.23;1.93;;;22.60;99.90;;;;;;5077966;28;20209;-91
2021/08/12 06:59:16;;;;;;;5.67;1.77;;;22.60;99.90;;;;;;5077809;28;20271;-92
2021/08/12 07:01:48;;;;;;;2.03;1.83;;;22.60;99.90;;;;;;5077007;28;20696;-91
2021/08/12 07:04:22;;;;;;;2.87;1.80;;;22.50;99.90;;;;;;5077421;28;20261;-91
2021/08/12 07:06:53;;;;;;;2.33;2.00;;;22.50;99.90;;;;;;5079778;28;20199;-92
2021/08/12 07:09:24;;;;;;;2.60;1.77;;;22.40;99.90;;;;;;5078805;28;20235;-91
2021/08/12 07:11:55;;;;;;;3.57;1.90;;;22.40;99.90;;;;;;5077997;28;20210;-91
2021/08/12 07:14:26;;;;;;;3.33;1.80;;;22.40;99.90;;;;;;5074300;28;20268;-92
2021/08/12 07:16:57;;;;;;;4.17;1.77;;;22.40;99.90;;;;;;5088968;28;20246;-91
2021/08/12 07:19:33;;;;;;;3.87;1.70;;;22.30;99.90;;;;;;5090715;28;20220;-92
2021/08/12 07:22:06;;;;;;;3.57;1.50;;;22.30;99.90;;;;;;5093635;28;20206;-92
2021/08/12 07:24:38;;;;;;;3.33;2.00;;;22.20;99.90;;;;;;5091257;28;20227;-92
2021/08/12 07:27:09;;;;;;;3.67;1.93;;;22.10;99.90;;;;;;5080038;28;20219;-92
2021/08/12 07:29:40;;;;;;;2.30;1.60;;;22.10;99.90;;;;;;5090141;28;20309;-92
2021/08/12 07:32:12;;;;;;;6.83;1.83;;;22.10;99.90;;;;;;5077413;28;20204;-92
2021/08/12 07:34:45;;;;;;;3.17;1.53;;;22.10;99.90;;;;;;5066396;28;20212;-91
2021/08/12 07:37:16;;;;;;;2.50;1.60;;;22.10;99.90;;;;;;5077905;28;20262;-92
2021/08/12 07:39:48;;;;;;;3.00;1.80;;;22.00;99.90;;;;;;5078040;28;20226;-91
2021/08/12 07:42:20;;;;;;;2.50;1.60;;;22.00;99.90;;;;;;5076930;28;20242;-92
2021/08/12 07:44:53;;;;;;;3.30;1.50;;;21.90;99.90;;;;;;5077970;28;20227;-91
2021/08/12 07:47:25;;;;;;;1.87;1.50;;;21.90;99.90;;;;;;5078864;28;20227;-91
2021/08/12 07:50:08;;;;;;;2.23;1.70;;;21.90;99.90;;;;;;5090143;28;20214;-91
2021/08/12 07:52:41;;;;;;;2.60;1.70;;;21.80;99.90;;;;;;5084006;28;20203;-91
2021/08/12 07:55:15;;;;;;;1.87;1.50;;;21.80;99.90;;;;;;5088336;28;20333;-91
2021/08/12 07:57:48;;;;;;;5.07;1.60;;;21.80;99.90;;;;;;5086281;28;20208;-91
2021/08/12 08:00:21;;;;;;;3.00;1.57;;;21.70;99.90;;;;;;5090949;28;20192;-92
2021/08/12 08:02:52;;;;;;;2.77;1.60;;;21.70;99.90;;;;;;5096385;28;20191;-91
2021/08/12 08:05:29;;;;;;;2.87;1.73;;;21.70;99.90;;;;;;5096714;28;20206;-92
2021/08/12 08:08:06;;;;;;;3.10;1.50;;;21.60;99.90;;;;;;5096783;28;20211;-89
2021/08/12 08:10:37;;;;;;;1.77;1.67;;;21.60;99.90;;;;;;5095578;28;20229;-91
2021/08/12 08:13:09;;;;;;;2.37;1.57;;;21.50;99.90;;;;;;5095307;28;20192;-92
2021/08/12 08:15:40;;;;;;;1.70;1.57;;;21.50;99.90;;;;;;5082155;28;20234;-91
2021/08/12 08:18:11;;;;;;;1.77;1.60;;;21.40;99.90;;;;;;5081074;28;20270;-92
2021/08/12 08:20:45;;;;;;;1.97;1.60;;;21.40;99.90;;;;;;5096819;28;20630;-91
2021/08/12 08:23:16;;;;;;;2.47;1.70;;;21.30;99.90;;;;;;5080311;28;20241;-91
2021/08/12 08:25:49;;;;;;;3.43;1.40;;;21.30;99.90;;;;;;5104425;28;20206;-92
2021/08/12 08:28:21;;;;;;;3.30;1.60;;;21.30;99.90;;;;;;5083395;28;20238;-91
2021/08/12 08:30:52;;;;;;;3.33;1.60;;;21.30;99.90;;;;;;5080709;28;20298;-92
2021/08/12 08:33:24;;;;;;;4.30;1.80;;;21.20;99.90;;;;;;5103451;28;20199;-91
2021/08/12 08:35:57;;;;;;;2.60;1.57;;;21.20;99.90;;;;;;5116687;28;20203;-90
2021/08/12 08:38:30;;;;;;;1.93;1.60;;;21.20;99.90;;;;;;5115652;28;20212;-92
2021/08/12 08:41:03;;;;;;;2.93;1.50;;;21.10;99.90;;;;;;5111227;28;20271;-92
2021/08/12 08:43:36;;;;;;;2.23;1.60;;;21.10;99.90;;;;;;5109877;28;20226;-91
2021/08/12 08:46:09;;;;;;;3.20;1.43;;;21.10;99.90;;;;;;5110381;28;20261;-91
2021/08/12 08:48:42;;;;;;;2.20;1.70;;;21.10;99.90;;;;;;5094615;28;20219;-90
2021/08/12 08:51:16;;;;;;;2.13;1.57;;;21.10;99.90;;;;;;5092505;28;20234;-91
2021/08/12 08:53:49;;;;;;;4.47;1.33;;;21.10;99.90;;;;;;5072744;28;20207;-89
2021/08/12 08:56:23;;;;;;;1.97;1.43;;;21.10;99.90;;;;;;5082526;28;20596;-91
2021/08/12 08:58:54;;;;;;;4.00;1.70;;;21.10;99.90;;;;;;5074487;28;20276;-91
2021/08/12 09:01:25;;;;;;;2.03;1.30;;;21.10;99.90;;;;;;5086259;28;20235;-91
2021/08/12 09:04:00;;;;;;;1.93;1.50;;;21.00;99.90;;;;;;5084652;28;20234;-91
2021/08/12 09:06:33;;;;;;;3.77;1.37;;;21.00;99.90;;;;;;5083625;28;20207;-91
2021/08/12 09:09:05;;;;;;;3.10;1.40;;;21.00;99.90;;;;;;5081643;28;20235;-91
2021/08/12 09:11:36;;;;;;;3.10;1.40;;;21.00;99.90;;;;;;5079580;28;20199;-91
2021/08/12 09:14:32;;;;;;;3.63;1.10;;;21.00;99.90;;;;;;5079879;28;20235;-91
2021/08/12 09:17:26;;;;;;;2.20;1.50;;;20.90;99.90;;;;;;5066695;28;20260;-92
2021/08/12 09:20:12;;;;;;;2.93;1.40;;;20.90;99.90;;;;;;5080241;28;20207;-92
2021/08/12 09:22:54;;;;;;;2.37;1.47;;;20.90;99.90;;;;;;5080085;28;20578;-91
2021/08/12 09:25:36;;;;;;;1.40;1.30;;;20.90;99.90;;;;;;5079168;28;20235;-91
2021/08/12 09:28:21;;;;;;;4.13;1.30;;;20.80;99.90;;;;;;5064542;28;20234;-92
2021/08/12 09:31:11;;;;;;;2.10;1.37;;;20.80;99.90;;;;;;5081082;28;20223;-92
2021/08/12 09:36:37;;;;;;;1.80;1.40;;;20.80;99.90;;;;;;5038817;28;20209;-92
2021/08/12 09:39:14;;;;;;;2.77;1.50;;;20.70;99.90;;;;;;5041480;28;20251;-92
2021/08/12 09:41:48;;;;;;;3.00;1.60;;;20.60;99.90;;;;;;5040940;28;20211;-92
2021/08/12 09:44:37;;;;;;;1.70;1.60;;;20.70;99.90;;;;;;5039610;28;20243;-91
2021/08/12 09:47:10;;;;;;;2.50;1.47;;;20.60;99.90;;;;;;5039677;28;20269;-91
2021/08/12 09:49:45;;;;;;;1.97;1.53;;;20.60;99.90;;;;;;5039384;28;20228;-91
2021/08/12 09:52:21;;;;;;;2.73;1.40;;;20.50;99.90;;;;;;5039204;28;20233;-91
2021/08/12 09:55:01;;;;;;;1.73;1.60;;;20.50;99.90;;;;;;5039325;28;20291;-91
2021/08/12 09:57:44;;;;;;;3.13;1.40;;;20.40;99.90;;;;;;5041177;28;20661;-91
2021/08/12 10:00:30;;;;;;;2.40;1.30;;;20.40;99.90;;;;;;5037940;28;20295;-92
2021/08/12 10:03:03;;;;;;;1.60;1.50;;;20.30;99.90;;;;;;5028991;28;20213;-91
2021/08/12 10:05:48;;;;;;;1.73;1.60;;;20.30;99.90;;;;;;5020487;28;20606;-90
2021/08/12 10:08:34;;;;;;;3.93;1.60;;;20.30;99.90;;;;;;5004954;28;20209;-91
2021/08/12 10:11:27;;;;;;;1.93;1.70;;;20.30;99.90;;;;;;5020678;28;20234;-91
2021/08/12 10:13:59;;;;;;;3.37;1.50;;;20.30;99.90;;;;;;5014672;28;20213;-91
2021/08/12 10:16:33;;;;;;;3.07;1.37;;;20.30;99.90;;;;;;5027153;28;20247;-91
2021/08/12 10:19:07;;;;;;;1.83;1.30;;;20.30;99.90;;;;;;5021278;28;20205;-90
2021/08/12 10:21:40;;;;;;;3.50;1.60;;;20.20;99.90;;;;;;5040079;28;20212;-91
2021/08/12 10:24:12;;;;;;;3.67;1.70;;;20.30;99.90;;;;;;5038898;28;20213;-91
2021/08/12 10:26:48;;;;;;;3.77;1.70;;;20.30;99.90;;;;;;5039041;28;20217;-90
2021/08/12 10:29:23;;;;;;;2.20;1.67;;;20.20;99.90;;;;;;5038267;28;20208;-91
2021/08/12 10:31:56;;;;;;;3.70;1.23;;;20.20;99.90;;;;;;5037954;28;20295;-91
2021/08/12 10:34:28;;;;;;;4.03;1.73;;;20.20;99.90;;;;;;5038446;28;20209;-92
2021/08/12 10:36:59;;;;;;;4.13;1.60;;;20.20;99.90;;;;;;5040100;28;20296;-91
2021/08/12 10:39:30;;;;;;;2.07;1.60;;;20.20;99.90;;;;;;5039609;28;20322;-91
2021/08/12 10:42:06;;;;;;;2.00;1.40;;;20.20;99.90;;;;;;5020574;28;20239;-91
2021/08/12 10:44:41;;;;;;;2.57;1.67;;;20.20;99.90;;;;;;5023714;28;20743;-91
2021/08/12 10:47:41;;;;;;;2.80;1.57;;;20.20;99.90;;;;;;5021900;28;20209;-90
2021/08/12 10:50:40;;;;;;;4.07;1.70;;;20.20;99.90;;;;;;5043081;28;20280;-91
2021/08/12 10:53:18;;;;;;;2.30;1.60;;;20.20;99.90;;;;;;5043699;28;20212;-91
2021/08/12 10:56:18;;;;;;;1.73;1.60;;;20.20;99.90;;;;;;5042531;28;20280;-91
2021/08/12 10:59:09;;;;;;;1.87;1.60;;;20.10;99.90;;;;;;5023829;28;20208;-91
2021/08/12 11:01:41;;;;;;;1.40;1.30;;;20.10;99.90;;;;;;5041899;28;20240;-91
2021/08/12 11:04:13;;;;;;;1.83;1.20;;;20.10;99.90;;;;;;5056900;28;20217;-91
2021/08/12 11:06:47;;;;;;;2.90;1.70;;;20.00;99.90;;;;;;5056613;28;20242;-91
2021/08/12 11:09:19;;;;;;;1.73;1.60;;;20.00;99.90;;;;;;5055394;28;20205;-90
2021/08/12 11:12:01;;;;;;;3.10;1.40;;;20.00;99.90;;;;;;5050274;28;20209;-91
2021/08/12 11:15:04;;;;;;;3.27;1.50;;;19.90;99.90;;;;;;5042889;28;20212;-91
2021/08/12 11:17:54;;;;;;;1.80;1.60;;;19.90;99.90;;;;;;5039172;28;20235;-91
2021/08/12 11:20:33;;;;;;;1.87;1.60;;;19.80;99.90;;;;;;5038827;28;20335;-91
2021/08/12 11:23:42;;;;;;;4.37;1.73;;;19.80;99.90;;;;;;5039188;28;20236;-91
2021/08/12 11:26:14;;;;;;;2.30;1.67;;;19.80;99.90;;;;;;5038840;28;20236;-91
2021/08/12 11:28:54;;;;;;;3.03;1.40;;;19.80;99.90;;;;;;5027840;28;20213;-91
2021/08/12 11:31:56;;;;;;;2.43;1.50;;;19.80;99.90;;;;;;5047924;28;20213;-91
2021/08/12 11:34:31;;;;;;;3.00;1.47;;;19.80;99.90;;;;;;5022804;28;20221;-92
2021/08/12 11:37:21;;;;;;;3.17;1.57;;;19.80;99.90;;;;;;5041053;28;20204;-91
2021/08/12 11:40:00;;;;;;;3.13;1.67;;;19.90;99.90;;;;;;5040555;28;20375;-91
2021/08/12 11:42:36;;;;;;;3.60;1.60;;;19.90;99.90;;;;;;5039332;28;20196;-91
2021/08/12 11:45:09;;;;;;;3.47;1.70;;;19.90;99.90;;;;;;5038268;28;20264;-91
2021/08/12 11:47:44;;;;;;;4.47;1.77;;;19.80;99.90;;;;;;5020304;28;20210;-90
2021/08/12 11:50:17;;;;;;;2.27;1.83;;;19.80;99.90;;;;;;5017598;28;20223;-91
2021/08/12 11:52:50;;;;;;;2.60;1.57;;;19.70;99.90;;;;;;5021160;28;20232;-90
2021/08/12 11:55:23;;;;;;;3.33;1.70;;;19.70;99.90;;;;;;5019232;28;20677;-90
2021/08/12 11:57:55;;;;;;;2.80;1.77;;;19.70;99.90;;;;;;5007952;28;20221;-88
2021/08/12 12:00:30;;;;;;;3.97;1.83;;;19.70;99.90;;;;;;5029901;28;20233;-91
2021/08/12 12:03:05;;;;;;;2.13;1.70;;;19.70;99.90;;;;;;5031574;28;20223;-90
2021/08/12 12:05:38;;;;;;;3.07;1.90;;;19.60;99.90;;;;;;5023335;28;20229;-91
2021/08/12 12:08:11;;;;;;;4.63;2.10;;;19.60;99.90;;;;;;5005432;28;20213;-91
2021/08/12 12:10:46;;;;;;;2.37;1.87;;;19.60;99.90;;;;;;5021368;28;20210;-91
2021/08/12 12:13:19;;;;;;;3.43;1.77;;;19.60;99.90;;;;;;5004796;28;20292;-91
2021/08/12 12:15:51;;;;;;;3.50;1.93;;;19.50;99.90;;;;;;5023493;28;20240;-91
2021/08/12 12:18:36;;;;;;;3.07;1.90;;;19.50;99.90;;;;;;5040650;28;20277;-91
2021/08/12 12:21:09;;;;;;;4.07;1.70;;;19.50;99.90;;;;;;5037637;28;20208;-92
2021/08/12 12:23:42;;;;;;;2.77;1.80;;;19.40;99.90;;;;;;5037161;28;20236;-91
2021/08/12 12:26:21;;;;;;;2.43;2.20;;;19.40;99.90;;;;;;5037833;28;20275;-91
2021/08/12 12:28:54;;;;;;;3.07;1.50;;;19.40;99.90;;;;;;5020778;28;20211;-91
2021/08/12 12:31:26;;;;;;;3.63;2.17;;;19.30;99.90;;;;;;5041067;28;20296;-91
2021/08/12 12:34:04;;;;;;;3.83;1.73;;;19.30;99.90;;;;;;5009930;28;20215;-91
2021/08/12 12:36:41;;;;;;;3.70;1.87;;;19.30;99.90;;;;;;5047708;28;20223;-90
2021/08/12 12:39:13;;;;;;;4.83;2.60;;;19.40;99.90;;;;;;5040585;28;20200;-91
2021/08/12 12:41:44;;;;;;;2.60;1.70;;;19.30;99.90;;;;;;5042096;28;20233;-91
2021/08/12 12:46:51;;;;;;;3.47;1.97;;;19.20;99.90;;;;;;5041428;22;20824;-92
2021/08/12 12:49:30;;;;;;;1.67;1.57;;;19.20;99.90;;;;;;5040914;28;20236;-90
2021/08/12 12:52:10;;;;;;;2.00;1.73;;;19.20;99.90;;;;;;5041473;28;20236;-89
2021/08/12 12:54:43;;;;;;;4.27;2.00;;;19.20;99.90;;;;;;5042066;28;20212;-89
2021/08/12 12:57:15;;;;;;;3.90;1.93;;;19.10;99.90;;;;;;5041444;28;20224;-92
2021/08/12 12:59:54;;;;;;;7.17;1.67;;;19.10;99.90;;;;;;5040818;28;20201;-89
2021/08/12 13:02:25;;;;;;;4.33;1.80;;;19.10;99.90;;;;;;5041072;28;20288;-91
2021/08/12 13:05:02;;;;;;;5.60;1.73;;;19.20;99.90;;;;;;5042371;28;20216;-89
2021/08/12 13:07:34;;;;;;;8.80;2.17;;;19.20;99.90;;;;;;5045335;28;20239;-91
2021/08/12 13:10:23;;;;;;;3.23;1.63;;;19.20;99.90;;;;;;5028646;28;20213;-91
2021/08/12 13:13:02;;;;;;;3.10;1.80;;;19.10;99.90;;;;;;5028367;28;20585;-90
2021/08/12 13:15:35;;;;;;;2.80;1.63;;;19.20;99.90;;;;;;5057843;28;20203;-90
2021/08/12 13:18:08;;;;;;;4.60;2.10;;;19.10;99.90;;;;;;5059097;28;20223;-92
2021/08/12 13:20:45;;;;;;;5.13;1.93;;;19.10;99.90;;;;;;5059219;28;20189;-90
2021/08/12 13:23:18;;;;;;;5.50;1.93;;;19.10;99.90;;;;;;5059658;28;20197;-90
2021/08/12 13:25:59;;;;;;;4.67;1.90;;;19.20;99.90;;;;;;5057586;28;20201;-91
2021/08/12 13:28:35;;;;;;;5.17;1.83;;;19.10;99.90;;;;;;5056945;28;20201;-90
2021/08/12 13:31:19;;;;;;;6.07;2.07;;;19.20;99.90;;;;;;5053277;28;20232;-90
2021/08/12 13:33:51;;;;;;;6.00;2.30;;;19.20;99.90;;;;;;5058876;28;20212;-90
2021/08/12 13:36:24;;;;;;;5.73;2.00;;;19.20;99.90;;;;;;5059281;28;20201;-90
2021/08/12 13:38:59;;;;;;;4.80;1.73;;;19.20;99.90;;;;;;5046034;28;20209;-91
2021/08/12 13:41:31;;;;;;;5.67;2.83;;;19.20;99.90;;;;;;5045725;28;20232;-92
2021/08/12 13:44:02;;;;;;;5.43;2.10;;;19.20;99.90;;;;;;5041085;28;20220;-91
2021/08/12 13:46:35;;;;;;;4.77;2.10;;;19.30;99.90;;;;;;5042935;28;20323;-91
2021/08/12 13:49:07;;;;;;;5.40;2.40;;;19.30;99.90;;;;;;5043840;28;20233;-92
2021/08/12 13:51:41;;;;;;;7.63;2.17;;;19.30;99.90;;;;;;5043429;28;20282;-91
2021/08/12 13:54:13;;;;;;;4.73;2.47;;;19.40;99.90;;;;;;5046988;28;20208;-90
2021/08/12 13:56:45;;;;;;;6.53;2.30;;;19.40;99.90;;;;;;5041657;28;20208;-92
2021/08/12 13:59:19;;;;;;;4.77;2.50;;;19.50;99.90;;;;;;5041114;28;20208;-92
2021/08/12 14:01:51;;;;;;;7.37;2.30;;;19.50;99.90;;;;;;5042312;28;20205;-92